Time;durP1;ratioP1;P1;durP2;ratioP2;P2;SDS_P1;SDS_P2;PMS_P1;PMS_P2;Temp;Humidity;BMP_temperature;BMP_pressure;BME280_temperature;BME280_humidity;BME280_pressure;Samples;Min_cycle;Max_cycle;Signal;HPM_P1;HPM_P2
2021/11/17 02:26:58;;;;;;;;;10.50;8.00;;;;;14.35;51.91;98938.47;4816692;28;105428;-90
2021/11/17 02:29:50;;;;;;;;;8.00;8.00;;;;;14.35;52.13;98932.19;4808246;28;108730;-90
2021/11/17 02:32:50;;;;;;;;;13.00;11.50;;;;;14.35;52.20;98941.19;4797452;28;103359;-90
2021/11/17 02:35:47;;;;;;;;;12.75;10.00;;;;;14.36;52.03;98942.06;4798761;28;102794;-90
2021/11/17 02:38:20;;;;;;;;;9.00;8.00;;;;;14.34;52.29;98935.97;4809349;28;102822;-89
2021/11/17 02:41:15;;;;;;;;;12.25;10.00;;;;;14.34;52.38;98930.53;4804567;28;109816;-86
2021/11/17 02:44:18;;;;;;;;;7.50;7.00;;;;;14.32;51.89;98929.91;4814766;28;102424;-90
2021/11/17 02:46:48;;;;;;;;;13.25;8.50;;;;;14.32;52.27;98935.38;4791377;28;102349;-90
2021/11/17 02:49:34;;;;;;;;;8.25;7.75;;;;;14.31;52.45;98929.09;4815702;28;102654;-90
2021/11/17 02:52:33;;;;;;;;;11.00;8.75;;;;;14.32;51.85;98929.91;4812859;28;108993;-90
2021/11/17 02:55:11;;;;;;;;;12.50;10.75;;;;;14.32;52.00;98932.63;4812308;28;102798;-90
2021/11/17 02:57:56;;;;;;;;;8.50;6.25;;;;;14.30;52.36;98930.97;4818332;28;102475;-90
2021/11/17 03:00:23;;;;;;;;;10.50;8.25;;;;;14.29;51.81;98926.56;4816549;28;103225;-90
2021/11/17 03:02:59;;;;;;;;;10.00;8.00;;;;;14.29;52.17;98929.28;4820328;28;104054;-90
2021/11/17 03:05:44;;;;;;;;;7.50;7.25;;;;;14.28;52.07;98922.16;4817583;28;102101;-90
2021/11/17 03:08:32;;;;;;;;;12.25;8.25;;;;;14.29;52.29;98929.28;4823327;28;102423;-90
2021/11/17 03:11:14;;;;;;;;;10.75;8.50;;;;;14.29;52.48;98926.56;4823469;28;102410;-90
2021/11/17 03:13:53;;;;;;;;;8.50;6.25;;;;;14.27;52.54;98915.06;4819951;28;103974;-90
2021/11/17 03:16:42;;;;;;;;;8.50;7.25;;;;;14.28;52.31;98929.50;4816256;28;107366;-90
2021/11/17 03:19:48;;;;;;;;;12.75;10.75;;;;;14.30;52.16;98919.25;4815634;28;102148;-90
2021/11/17 03:22:37;;;;;;;;;11.75;8.75;;;;;14.31;52.80;98923.66;4812998;28;102869;-90
2021/11/17 03:25:33;;;;;;;;;7.75;7.75;;;;;14.32;52.55;98921.75;4814411;28;109211;-90
2021/11/17 03:28:11;;;;;;;;;6.25;5.00;;;;;14.32;51.98;98921.75;4816870;28;103175;-91
2021/11/17 03:31:18;;;;;;;;;9.25;9.00;;;;;14.33;51.79;98916.09;4818499;28;102917;-90
2021/11/17 03:34:06;;;;;;;;;8.25;8.00;;;;;14.36;52.29;98917.59;4806264;29;102279;-90
2021/11/17 03:36:43;;;;;;;;;8.25;7.75;;;;;14.35;51.66;98914.00;4803292;29;112494;-90
2021/11/17 03:39:24;;;;;;;;;10.50;9.25;;;;;14.36;52.14;98925.75;4817644;28;102446;-90
2021/11/17 03:42:10;;;;;;;;;9.25;7.50;;;;;14.37;51.52;98913.78;4814270;28;102200;-90
2021/11/17 03:44:50;;;;;;;;;9.00;8.00;;;;;14.38;52.24;98915.47;4816902;28;102716;-89
2021/11/17 03:47:59;;;;;;;;;7.00;6.75;;;;;14.38;51.62;98916.31;4814526;29;104415;-90
2021/11/17 03:51:03;;;;;;;;;11.00;8.25;;;;;14.36;52.45;98912.13;4808169;28;102601;-90
2021/11/17 03:54:06;;;;;;;;;7.00;6.00;;;;;14.34;51.83;98908.75;4814296;28;103446;-87
2021/11/17 03:56:45;;;;;;;;;11.00;8.00;;;;;14.32;52.17;98914.41;4807013;28;102739;-89
2021/11/17 03:59:54;;;;;;;;;6.75;5.00;;;;;14.32;52.00;98915.25;4813933;28;104361;-90
2021/11/17 04:02:49;;;;;;;;;10.75;8.00;;;;;14.32;52.26;98914.41;4806493;28;105890;-89
2021/11/17 04:05:28;;;;;;;;;9.50;6.75;;;;;14.32;51.95;98917.97;4816986;28;102842;-90
2021/11/17 04:08:09;;;;;;;;;8.00;8.00;;;;;14.30;52.21;98914.66;4812880;28;102264;-90
2021/11/17 04:10:43;;;;;;;;;9.25;8.00;;;;;14.32;52.20;98913.59;4817671;28;108972;-90
2021/11/17 04:13:47;;;;;;;;;7.50;7.50;;;;;14.31;51.39;98915.47;4821226;28;104811;-90
2021/11/17 04:16:36;;;;;;;;;7.50;6.75;;;;;14.29;52.46;98917.56;4820949;28;105264;-90
2021/11/17 04:19:17;;;;;;;;;12.75;11.00;;;;;14.28;52.24;98914.00;4816872;28;103159;-90
2021/11/17 04:22:09;;;;;;;;;10.75;6.75;;;;;14.28;51.85;98911.28;4817905;28;104098;-90
2021/11/17 04:25:10;;;;;;;;;9.50;8.00;;;;;14.26;52.23;98897.09;4823000;28;102713;-89
2021/11/17 04:28:18;;;;;;;;;11.75;7.00;;;;;14.25;52.66;98910.91;4819249;28;102714;-90
2021/11/17 04:30:56;;;;;;;;;11.75;7.75;;;;;14.25;52.67;98911.75;4809077;28;102457;-90
2021/11/17 04:33:34;;;;;;;;;10.75;7.25;;;;;14.24;52.19;98920.94;4816359;28;104361;-90
2021/11/17 04:36:47;;;;;;;;;12.00;10.75;;;;;14.21;52.43;98907.78;4811317;28;104989;-90
2021/11/17 04:39:17;;;;;;;;;8.00;7.00;;;;;14.22;51.93;98914.91;4800607;28;102826;-90
2021/11/17 04:42:10;;;;;;;;;8.25;7.00;;;;;14.23;52.26;98910.25;4820159;28;102371;-90
2021/11/17 04:44:56;;;;;;;;;11.25;8.50;;;;;14.22;52.32;98912.19;4814514;28;108870;-90
2021/11/17 04:47:39;;;;;;;;;9.75;7.50;;;;;14.23;52.39;98904.81;4814523;28;102587;-90
2021/11/17 04:50:30;;;;;;;;;8.00;7.00;;;;;14.23;52.61;98902.94;4811222;28;104295;-88
2021/11/17 04:53:17;;;;;;;;;10.00;8.50;;;;;14.23;52.00;98907.53;4811028;28;102838;-91
2021/11/17 04:56:00;;;;;;;;;8.00;7.75;;;;;14.20;52.22;98902.56;4803419;28;108679;-90
2021/11/17 04:58:46;;;;;;;;;8.25;7.50;;;;;14.20;52.22;98902.56;4805546;29;102644;-89
2021/11/17 05:01:41;;;;;;;;;10.75;7.50;;;;;14.19;52.08;98900.88;4815564;28;102443;-90
2021/11/17 05:04:26;;;;;;;;;7.00;6.25;;;;;14.18;52.63;98901.94;4797556;29;102710;-90
2021/11/17 05:07:07;;;;;;;;;12.75;7.75;;;;;14.18;52.03;98904.66;4810584;28;104066;-90
2021/11/17 05:09:58;;;;;;;;;9.25;8.00;;;;;14.16;52.79;98896.72;4812727;28;102890;-90
2021/11/17 05:12:40;;;;;;;;;10.25;7.50;;;;;14.16;52.04;98907.59;4798172;29;105353;-89
2021/11/17 05:15:17;;;;;;;;;8.50;7.00;;;;;14.16;52.26;98904.88;4798400;29;102694;-90
2021/11/17 05:17:53;;;;;;;;;7.75;7.50;;;;;14.15;52.81;98905.91;4793667;29;103361;-89
2021/11/17 05:20:45;;;;;;;;;7.75;6.25;;;;;14.16;52.92;98907.59;4792576;29;102152;-91
2021/11/17 05:23:42;;;;;;;;;7.00;7.00;;;;;14.17;53.04;98900.28;4805958;29;103582;-90
2021/11/17 05:26:18;;;;;;;;;7.00;7.00;;;;;14.17;52.34;98906.56;4789225;29;104001;-90
2021/11/17 05:28:54;;;;;;;;;7.25;6.00;;;;;14.17;52.72;98898.41;4795287;29;103110;-90
2021/11/17 05:31:43;;;;;;;;;9.50;7.75;;;;;14.18;52.80;98904.66;4804904;29;103687;-90
2021/11/17 05:34:13;;;;;;;;;7.50;6.25;;;;;14.16;52.46;98902.16;4804141;29;102417;-90
2021/11/17 05:36:52;;;;;;;;;6.50;6.00;;;;;14.16;53.21;98904.03;4792405;29;102783;-90
2021/11/17 05:40:00;;;;;;;;;10.00;7.75;;;;;14.16;52.17;98899.44;4793778;29;104046;-90
2021/11/17 05:42:39;;;;;;;;;9.50;7.75;;;;;14.14;52.74;98906.13;4768136;29;103416;-90
2021/11/17 05:45:47;;;;;;;;;11.75;8.25;;;;;14.13;52.58;98902.59;4793453;29;102484;-89
2021/11/17 05:48:37;;;;;;;;;10.75;10.25;;;;;14.13;52.96;98908.03;4798250;29;103220;-90
2021/11/17 05:51:07;;;;;;;;;8.75;6.75;;;;;14.11;52.93;98910.13;4792066;29;104427;-89
2021/11/17 05:53:42;;;;;;;;;10.50;8.00;;;;;14.11;52.62;98921.00;4794853;29;102983;-88
2021/11/17 05:56:16;;;;;;;;;11.00;9.75;;;;;14.11;52.73;98912.00;4797636;29;102426;-90
2021/11/17 05:59:08;;;;;;;;;8.50;7.50;;;;;14.11;53.01;98914.72;4776528;29;102345;-90
2021/11/17 06:01:58;;;;;;;;;8.00;7.00;;;;;14.12;52.79;98922.69;4770629;29;109053;-89
2021/11/17 06:04:25;;;;;;;;;11.00;8.25;;;;;14.09;53.02;98906.81;4762746;29;103992;-90
2021/11/17 06:06:52;;;;;;;;;8.50;7.25;;;;;14.08;52.38;98920.59;4794730;29;102352;-90
2021/11/17 06:09:19;;;;;;;;;8.25;7.00;;;;;14.05;53.00;98924.56;4792783;29;103796;-90
2021/11/17 06:11:46;;;;;;;;;12.00;10.00;;;;;14.11;52.17;98923.72;4809385;29;103402;-90
2021/11/17 06:14:31;;;;;;;;;10.50;8.50;;;;;14.12;52.74;98919.13;4817142;28;104165;-89
2021/11/17 06:17:01;;;;;;;;;7.25;6.75;;;;;14.16;52.41;98918.47;4795820;29;105340;-90
2021/11/17 06:19:32;;;;;;;;;8.25;7.00;;;;;14.19;52.87;98917.19;4809005;29;102344;-90
2021/11/17 06:21:59;;;;;;;;;7.25;6.00;;;;;14.20;52.24;98914.28;4792238;29;109213;-90
2021/11/17 06:24:27;;;;;;;;;6.50;6.00;;;;;14.24;52.17;98926.38;4802916;29;102927;-90
2021/11/17 06:26:54;;;;;;;;;10.50;7.00;;;;;14.26;52.73;98920.72;4795457;29;102312;-90
2021/11/17 06:29:29;;;;;;;;;11.25;9.00;;;;;14.28;52.77;98927.63;4794510;29;102521;-90
2021/11/17 06:31:57;;;;;;;;;8.75;7.25;;;;;14.30;52.65;98930.13;4788140;29;103118;-90
2021/11/17 06:34:34;;;;;;;;;8.75;7.00;;;;;14.32;52.45;98932.63;4772610;29;103237;-90
2021/11/17 06:37:03;;;;;;;;;10.25;9.50;;;;;14.35;52.41;98932.19;4798307;29;102499;-90
2021/11/17 06:39:31;;;;;;;;;7.75;6.75;;;;;14.36;52.41;98931.19;4824346;28;102605;-89
2021/11/17 06:41:59;;;;;;;;;7.00;5.50;;;;;14.39;52.41;98933.47;4810625;29;104501;-90
2021/11/17 06:44:26;;;;;;;;;8.00;6.75;;;;;14.40;52.02;98935.13;4820745;28;102649;-90
2021/11/17 06:46:53;;;;;;;;;12.50;8.75;;;;;14.42;52.00;98931.13;4821875;29;102453;-91
2021/11/17 06:49:21;;;;;;;;;8.50;7.50;;;;;14.45;51.91;98929.88;4812759;29;102861;-91
2021/11/17 06:51:48;;;;;;;;;7.00;6.00;;;;;14.46;51.93;98939.69;4800206;29;103976;-90
2021/11/17 06:54:16;;;;;;;;;7.00;6.50;;;;;14.48;51.61;98937.59;4818151;28;102363;-91
2021/11/17 06:56:43;;;;;;;;;8.00;7.00;;;;;14.49;51.77;98928.38;4814664;29;102293;-90
2021/11/17 06:59:10;;;;;;;;;7.75;6.00;;;;;14.53;51.99;98935.06;4824072;29;102708;-91
2021/11/17 07:01:39;;;;;;;;;8.25;7.25;;;;;14.55;52.14;98927.50;4824946;29;104346;-91
2021/11/17 07:04:07;;;;;;;;;8.00;7.25;;;;;14.56;51.81;98931.88;4815369;29;102624;-90
2021/11/17 07:06:34;;;;;;;;;8.75;7.00;;;;;14.58;51.57;98941.53;4824377;29;102214;-91
2021/11/17 07:09:01;;;;;;;;;8.00;8.00;;;;;14.59;51.89;98934.19;4827347;29;102172;-91
2021/11/17 07:11:28;;;;;;;;;8.00;6.00;;;;;14.62;51.60;98941.91;4812974;28;104120;-90
2021/11/17 07:13:55;;;;;;;;;8.00;6.00;;;;;14.62;51.39;98944.63;4822342;29;102511;-91
2021/11/17 07:16:22;;;;;;;;;6.25;5.25;;;;;14.64;51.88;98942.50;4819286;29;103682;-91
2021/11/17 07:18:49;;;;;;;;;10.00;7.00;;;;;14.65;51.72;98928.69;4811512;28;102293;-90
2021/11/17 07:21:16;;;;;;;;;6.75;6.75;;;;;14.66;51.16;98943.16;4816297;29;103068;-91
2021/11/17 07:23:43;;;;;;;;;7.25;7.25;;;;;14.66;51.42;98943.16;4803740;29;102157;-91
2021/11/17 07:26:10;;;;;;;;;9.75;7.25;;;;;14.66;51.41;98941.25;4811433;28;104051;-90
2021/11/17 07:28:39;;;;;;;;;8.00;7.50;;;;;14.68;51.64;98939.13;4793197;29;102212;-90
2021/11/17 07:31:07;;;;;;;;;7.25;6.75;;;;;14.68;51.67;98933.69;4826313;29;104290;-90
2021/11/17 07:33:34;;;;;;;;;9.25;7.00;;;;;14.69;51.41;98929.94;4816585;29;103257;-91
2021/11/17 07:36:01;;;;;;;;;7.00;7.00;;;;;14.70;51.49;98930.75;4819841;28;103418;-90
2021/11/17 07:38:32;;;;;;;;;10.50;7.00;;;;;14.71;51.02;98932.44;4805722;29;102268;-91
2021/11/17 07:40:59;;;;;;;;;7.00;6.50;;;;;14.71;51.19;98929.72;4811449;29;104117;-91
2021/11/17 07:43:26;;;;;;;;;8.00;7.00;;;;;14.72;51.61;98942.28;4817579;28;107391;-91
2021/11/17 07:45:56;;;;;;;;;8.50;8.50;;;;;14.73;51.01;98941.19;4812868;29;102555;-91
2021/11/17 07:48:25;;;;;;;;;8.00;7.00;;;;;14.71;51.41;98941.44;4814548;28;102505;-90
2021/11/17 07:50:53;;;;;;;;;7.75;6.00;;;;;14.72;51.30;98934.91;4815855;28;104308;-90
2021/11/17 07:53:21;;;;;;;;;8.75;8.00;;;;;14.72;51.46;98934.13;4821178;29;102658;-91
2021/11/17 07:55:50;;;;;;;;;10.00;9.25;;;;;14.71;51.04;98930.56;4816204;28;102210;-91
2021/11/17 07:58:19;;;;;;;;;7.50;7.00;;;;;14.71;51.17;98936.00;4821074;29;102879;-91
2021/11/17 08:00:51;;;;;;;;;8.00;7.25;;;;;14.71;51.63;98927.00;4809855;29;103942;-91
2021/11/17 08:03:19;;;;;;;;;7.00;6.50;;;;;14.71;51.52;98932.44;4822289;29;102523;-91
2021/11/17 08:05:47;;;;;;;;;11.25;8.00;;;;;14.70;51.31;98920.72;4788528;29;102646;-91
2021/11/17 08:08:15;;;;;;;;;9.25;8.00;;;;;14.71;51.69;98918.81;4790746;29;102753;-91
2021/11/17 08:10:44;;;;;;;;;6.00;5.75;;;;;14.70;52.15;98917.16;4818555;28;104200;-91
2021/11/17 08:13:12;;;;;;;;;7.25;7.00;;;;;14.69;51.88;98913.59;4785883;29;102699;-91
2021/11/17 08:15:40;;;;;;;;;7.00;6.25;;;;;14.69;51.22;98920.91;4796086;29;102210;-90
2021/11/17 08:18:07;;;;;;;;;11.00;8.00;;;;;14.70;51.20;98922.59;4819944;29;102662;-86
2021/11/17 08:20:34;;;;;;;;;8.00;7.00;;;;;14.70;51.67;98914.44;4793864;29;104113;-91
2021/11/17 08:23:01;;;;;;;;;9.50;7.50;;;;;14.71;51.71;98914.22;4810973;29;102446;-91
2021/11/17 08:25:33;;;;;;;;;7.00;6.00;;;;;14.72;51.44;98917.78;4816372;29;102689;-91
2021/11/17 08:28:01;;;;;;;;;10.75;8.25;;;;;14.74;51.62;98918.38;4804651;29;103208;-91
2021/11/17 08:30:30;;;;;;;;;8.00;6.50;;;;;14.77;51.29;98919.84;4796989;29;104890;-90
2021/11/17 08:32:57;;;;;;;;;7.00;7.00;;;;;14.77;51.17;98920.66;4804771;29;102089;-91
2021/11/17 08:35:26;;;;;;;;;8.50;7.75;;;;;14.78;51.32;98916.88;4816963;29;102774;-91
2021/11/17 08:37:53;;;;;;;;;8.50;7.00;;;;;14.81;51.43;98915.63;4814321;29;102629;-90
2021/11/17 08:40:27;;;;;;;;;7.00;6.25;;;;;14.81;51.38;98930.06;4804871;29;103657;-91
2021/11/17 08:42:54;;;;;;;;;9.50;8.25;;;;;14.82;51.59;98929.00;4811762;29;102114;-91
2021/11/17 08:45:21;;;;;;;;;9.00;7.00;;;;;14.83;51.69;98925.22;4805670;29;102196;-90
2021/11/17 08:47:48;;;;;;;;;7.00;6.00;;;;;14.86;51.21;98932.94;4807092;29;104309;-91
2021/11/17 08:50:17;;;;;;;;;9.75;9.00;;;;;14.87;51.21;98936.50;4812944;28;104043;-90
2021/11/17 08:52:45;;;;;;;;;10.75;6.00;;;;;14.89;51.19;98937.13;4808785;29;102653;-90
2021/11/17 08:55:12;;;;;;;;;8.00;8.00;;;;;14.89;51.45;98935.25;4779553;29;102479;-90
2021/11/17 08:57:41;;;;;;;;;7.50;6.75;;;;;14.90;51.60;98927.91;4788064;29;104041;-90
2021/11/17 09:00:10;;;;;;;;;8.75;8.00;;;;;14.90;51.39;98942.38;4798607;29;104326;-90
2021/11/17 09:02:45;;;;;;;;;7.00;7.00;;;;;14.92;51.46;98933.97;4798316;28;102752;-91
2021/11/17 09:05:15;;;;;;;;;6.50;6.50;;;;;14.92;50.92;98929.34;4811264;29;103052;-90
2021/11/17 09:07:43;;;;;;;;;11.25;8.25;;;;;14.93;50.76;98931.03;4793288;29;102661;-88
2021/11/17 09:10:12;;;;;;;;;7.75;6.75;;;;;14.94;50.84;98920.97;4805207;29;104060;-89
2021/11/17 09:12:39;;;;;;;;;7.25;7.00;;;;;14.92;51.10;98929.34;4820241;29;102378;-89
2021/11/17 09:15:09;;;;;;;;;8.50;7.00;;;;;14.93;50.93;98931.03;4803498;29;102330;-91
2021/11/17 09:17:37;;;;;;;;;7.25;6.50;;;;;14.94;51.24;98927.25;4809984;28;102200;-91
2021/11/17 09:20:05;;;;;;;;;9.25;8.00;;;;;14.94;50.87;98931.84;4820120;29;104339;-90
2021/11/17 09:22:32;;;;;;;;;9.75;6.50;;;;;14.93;51.18;98935.63;4796190;29;102552;-91
2021/11/17 09:25:00;;;;;;;;;8.00;7.00;;;;;14.93;51.39;98943.81;4813353;29;102235;-90
2021/11/17 09:27:27;;;;;;;;;13.00;9.00;;;;;14.91;51.19;98938.56;4804503;29;102365;-91
2021/11/17 09:29:54;;;;;;;;;13.00;11.00;;;;;14.91;51.06;98935.84;4816516;29;103778;-90
2021/11/17 09:32:22;;;;;;;;;8.25;8.00;;;;;14.91;51.84;98935.84;4812468;29;102536;-91
2021/11/17 09:34:49;;;;;;;;;11.75;7.25;;;;;14.91;51.30;98937.72;4818126;29;102174;-90
2021/11/17 09:37:16;;;;;;;;;8.00;8.00;;;;;14.89;51.32;98924.34;4818517;29;102253;-90
2021/11/17 09:39:46;;;;;;;;;3.75;3.75;;;;;14.88;51.38;98930.84;4814786;29;104098;-90
2021/11/17 09:42:15;;;;;;;;;9.25;8.00;;;;;14.86;51.46;98930.22;4807123;29;102728;-90
2021/11/17 09:44:43;;;;;;;;;8.00;7.00;;;;;14.85;51.85;98923.13;4814887;28;102559;-89
2021/11/17 09:47:14;;;;;;;;;10.25;9.00;;;;;14.89;51.38;98923.53;4807162;29;102288;-90
2021/11/17 09:50:05;;;;;;;;;7.00;6.00;;;;;14.88;51.63;98933.56;4807907;29;109368;-91
2021/11/17 09:52:36;;;;;;;;;11.00;11.00;;;;;14.88;51.49;98922.69;4822275;29;103244;-91
2021/11/17 09:55:38;;;;;;;;;12.00;6.00;;;;;14.89;51.18;98923.53;4814896;29;102644;-90
2021/11/17 09:58:21;;;;;;;;;10.00;10.00;;;;;14.88;51.54;98922.69;4801979;29;102920;-91
2021/11/17 10:00:50;;;;;;;;;7.75;7.75;;;;;14.87;50.98;98915.56;4820530;29;108304;-90
2021/11/17 10:03:33;;;;;;;;;9.00;8.25;;;;;14.85;51.20;98914.13;4802462;29;102344;-90
2021/11/17 10:12:49;;;;;;;;;9.75;9.00;;;;;14.83;51.69;98910.78;4771166;29;108731;-91
2021/11/17 10:15:02;;;;;;;;;8.75;7.25;;;;;14.80;52.03;98906.63;4806750;29;102611;-90
2021/11/17 10:17:43;;;;;;;;;9.25;8.25;;;;;14.80;51.71;98903.91;4824811;28;103123;-90
2021/11/17 10:20:10;;;;;;;;;8.75;8.00;;;;;14.80;51.54;98903.91;4821378;28;102432;-90
2021/11/17 10:22:38;;;;;;;;;8.00;7.00;;;;;14.79;51.02;98896.78;4810956;29;104091;-90
2021/11/17 10:25:17;;;;;;;;;9.75;7.75;;;;;14.80;51.41;98893.00;4816048;29;102635;-90
2021/11/17 10:27:58;;;;;;;;;11.00;8.75;;;;;14.79;52.11;98895.94;4826876;28;102728;-89
2021/11/17 10:30:37;;;;;;;;;10.25;9.00;;;;;14.83;51.71;98894.44;4828177;28;104302;-90
2021/11/17 10:33:16;;;;;;;;;13.25;11.50;;;;;14.83;51.53;98895.28;4828136;29;104078;-90
2021/11/17 10:36:05;;;;;;;;;9.00;8.00;;;;;14.87;51.61;98893.78;4819727;28;104325;-91
2021/11/17 10:38:39;;;;;;;;;11.00;9.00;;;;;14.87;51.39;98896.50;4818527;29;103200;-90
2021/11/17 10:41:26;;;;;;;;;9.75;9.25;;;;;14.90;51.42;98898.81;4809663;29;105082;-91
2021/11/17 10:44:05;;;;;;;;;11.50;9.00;;;;;14.91;51.66;98889.56;4825346;29;108928;-91
2021/11/17 10:46:53;;;;;;;;;10.25;9.50;;;;;14.93;51.59;98892.06;4828977;29;102369;-91
2021/11/17 10:49:26;;;;;;;;;8.00;7.75;;;;;14.96;51.79;98891.63;4815775;29;104008;-90
2021/11/17 10:52:02;;;;;;;;;6.00;6.00;;;;;14.97;51.59;98888.69;4822960;29;102233;-91
2021/11/17 10:54:30;;;;;;;;;7.75;7.25;;;;;14.99;51.09;98891.19;4814479;28;104424;-90
2021/11/17 10:57:04;;;;;;;;;12.00;9.25;;;;;15.01;51.52;98889.91;4806913;29;103552;-90
2021/11/17 10:59:31;;;;;;;;;8.75;7.75;;;;;15.03;51.16;98881.50;4825265;28;102295;-91
2021/11/17 11:01:59;;;;;;;;;8.00;7.75;;;;;15.04;51.12;98883.19;4819885;29;102177;-91
2021/11/17 11:04:40;;;;;;;;;9.75;8.00;;;;;15.05;51.32;98884.84;4790305;29;104041;-89
2021/11/17 11:07:12;;;;;;;;;10.25;9.75;;;;;15.06;51.39;98898.22;4801547;29;102310;-91
2021/11/17 11:09:54;;;;;;;;;6.50;6.25;;;;;15.07;50.82;98889.03;4809868;29;102642;-92
2021/11/17 11:12:24;;;;;;;;;8.00;7.00;;;;;15.07;51.00;98883.56;4791763;29;102203;-91
2021/11/17 11:15:00;;;;;;;;;9.50;7.50;;;;;15.09;51.26;98884.16;4800719;29;104121;-90
2021/11/17 11:17:35;;;;;;;;;11.00;9.25;;;;;15.09;51.65;98880.59;4818251;29;102686;-91
2021/11/17 11:20:26;;;;;;;;;10.50;9.00;;;;;15.10;51.43;98877.66;4825775;29;104272;-91
2021/11/17 11:23:05;;;;;;;;;4.50;4.50;;;;;15.09;51.27;98873.28;4795307;29;102546;-91
2021/11/17 11:25:57;;;;;;;;;8.75;8.75;;;;;15.10;51.01;98877.66;4819304;28;104196;-90
2021/11/17 11:28:27;;;;;;;;;9.25;9.00;;;;;15.10;50.99;98879.56;4813823;29;102134;-90
2021/11/17 11:31:11;;;;;;;;;10.00;7.75;;;;;15.09;51.35;98873.28;4825097;29;103206;-91
2021/11/17 11:33:48;;;;;;;;;11.50;10.50;;;;;15.08;51.27;98863.44;4824823;29;102343;-91
2021/11/17 11:36:15;;;;;;;;;12.00;9.25;;;;;15.07;51.38;98871.84;4810484;28;108897;-91
2021/11/17 11:38:50;;;;;;;;;8.75;8.25;;;;;15.08;51.32;98876.25;4815458;29;102110;-90
2021/11/17 11:41:29;;;;;;;;;12.25;8.00;;;;;15.07;51.51;98867.22;4818828;29;102442;-90
2021/11/17 11:44:23;;;;;;;;;11.50;8.75;;;;;15.06;51.46;98868.28;4820997;29;102567;-91
2021/11/17 11:46:52;;;;;;;;;9.75;7.75;;;;;15.07;51.24;98888.19;4798205;29;108686;-90
2021/11/17 11:49:38;;;;;;;;;8.75;8.00;;;;;15.04;51.55;98881.28;4823712;29;102412;-90
2021/11/17 11:52:25;;;;;;;;;12.25;8.50;;;;;15.04;51.42;98878.56;4822236;29;102743;-90
2021/11/17 11:54:54;;;;;;;;;13.75;11.75;;;;;15.04;51.62;98884.00;4820120;29;102733;-90
2021/11/17 11:57:39;;;;;;;;;8.25;7.25;;;;;15.05;52.10;98882.94;4826005;28;104384;-90
2021/11/17 12:00:14;;;;;;;;;13.25;10.00;;;;;15.04;51.37;98875.03;4824942;29;102641;-90
2021/11/17 12:02:44;;;;;;;;;11.50;10.00;;;;;15.04;51.35;98866.84;4804150;29;102914;-90
2021/11/17 12:05:21;;;;;;;;;9.50;8.00;;;;;15.04;51.32;98877.75;4822561;29;102198;-90
2021/11/17 12:08:03;;;;;;;;;11.00;8.50;;;;;15.00;51.65;98869.16;4786672;29;108747;-90
2021/11/17 12:10:40;;;;;;;;;10.50;9.50;;;;;15.01;51.21;98878.16;4783082;29;102499;-90
2021/11/17 12:13:16;;;;;;;;;10.00;9.00;;;;;15.00;51.69;98871.88;4806178;29;102476;-90
2021/11/17 12:16:00;;;;;;;;;10.00;9.50;;;;;14.99;51.28;98874.84;4824374;28;102475;-90
2021/11/17 12:18:28;;;;;;;;;8.25;6.75;;;;;14.98;51.42;98868.56;4825525;29;108756;-90
2021/11/17 12:21:01;;;;;;;;;9.25;9.00;;;;;14.97;51.73;98866.91;4821527;29;102559;-90
2021/11/17 12:23:31;;;;;;;;;7.25;6.75;;;;;14.96;51.78;98864.38;4817427;28;102670;-90
2021/11/17 12:26:05;;;;;;;;;11.75;11.75;;;;;14.96;51.66;98859.78;4822830;29;103866;-90
2021/11/17 12:28:32;;;;;;;;;11.50;9.00;;;;;14.95;51.93;98858.09;4811041;29;104208;-90
2021/11/17 12:31:09;;;;;;;;;8.00;8.00;;;;;14.94;51.40;98850.19;4818634;29;102464;-89
2021/11/17 12:33:36;;;;;;;;;12.25;10.25;;;;;14.93;51.66;98854.78;4804991;29;102100;-90
2021/11/17 12:36:13;;;;;;;;;9.50;9.25;;;;;14.93;51.85;98854.78;4825308;29;102414;-90
2021/11/17 12:38:40;;;;;;;;;9.25;7.00;;;;;14.92;51.54;98849.56;4821370;28;104290;-90
2021/11/17 12:41:15;;;;;;;;;8.00;8.00;;;;;14.94;51.56;98845.56;4822379;28;102787;-90
2021/11/17 12:44:12;;;;;;;;;12.50;11.75;;;;;14.97;51.40;98845.09;4826477;29;103410;-90
2021/11/17 12:46:58;;;;;;;;;8.75;8.25;;;;;14.97;51.57;98842.38;4799212;29;102686;-90
2021/11/17 12:49:35;;;;;;;;;15.00;12.75;;;;;14.99;51.67;98842.16;4819373;28;108652;-90
2021/11/17 12:52:02;;;;;;;;;14.50;10.75;;;;;14.98;51.41;98852.22;4818618;28;102551;-90
2021/11/17 12:54:45;;;;;;;;;10.00;8.50;;;;;14.98;51.42;98844.06;4820917;29;102534;-90
2021/11/17 12:57:38;;;;;;;;;13.75;11.00;;;;;14.99;51.55;98843.00;4793358;29;102745;-89
2021/11/17 13:00:14;;;;;;;;;11.75;11.25;;;;;15.01;51.39;98846.31;4799168;29;108941;-89
2021/11/17 13:02:55;;;;;;;;;11.00;8.25;;;;;15.01;51.58;98846.31;4817016;29;102239;-90
2021/11/17 13:05:25;;;;;;;;;10.25;9.25;;;;;15.03;51.47;98841.50;4818226;29;112503;-89
2021/11/17 13:07:59;;;;;;;;;10.75;10.00;;;;;15.04;51.33;98839.63;4810115;29;102611;-90
2021/11/17 13:10:34;;;;;;;;;12.75;9.50;;;;;15.04;51.35;98840.41;4802258;29;103532;-90
2021/11/17 13:13:02;;;;;;;;;11.00;8.00;;;;;15.05;51.31;98844.81;4808802;29;102548;-90
2021/11/17 13:15:40;;;;;;;;;12.75;10.25;;;;;15.07;51.24;98845.44;4824228;29;102255;-90
2021/11/17 13:18:08;;;;;;;;;10.25;9.50;;;;;15.07;51.41;98839.16;4805325;29;103429;-90
2021/11/17 13:20:39;;;;;;;;;8.00;8.00;;;;;15.06;51.57;98841.03;4824328;28;104089;-90
2021/11/17 13:23:09;;;;;;;;;8.75;8.00;;;;;15.08;51.52;98851.72;4816919;29;102630;-90
2021/11/17 13:26:10;;;;;;;;;7.25;6.75;;;;;15.08;51.19;98857.97;4817419;28;102586;-90
2021/11/17 13:28:44;;;;;;;;;13.00;11.00;;;;;15.09;51.29;98856.09;4816173;29;102637;-90
2021/11/17 13:31:35;;;;;;;;;11.00;9.00;;;;;15.09;51.40;98856.94;4821330;29;104118;-90
2021/11/17 13:34:06;;;;;;;;;9.50;8.50;;;;;15.09;51.38;98851.47;4820893;29;102541;-90
2021/11/17 13:36:47;;;;;;;;;10.00;8.00;;;;;15.08;51.38;98841.63;4820889;28;102538;-90
2021/11/17 13:39:22;;;;;;;;;12.25;11.50;;;;;15.07;51.32;98840.00;4820159;29;102653;-90
2021/11/17 13:41:51;;;;;;;;;10.50;8.25;;;;;15.08;51.60;98841.63;4821821;29;109181;-89
2021/11/17 13:44:20;;;;;;;;;12.00;9.50;;;;;15.06;51.19;98843.78;4827978;28;102181;-89
2021/11/17 13:47:11;;;;;;;;;13.00;9.00;;;;;15.07;51.20;98844.59;4825820;28;102307;-89
2021/11/17 13:49:40;;;;;;;;;12.50;9.75;;;;;15.05;51.79;98833.94;4824478;29;104075;-90
2021/11/17 13:52:07;;;;;;;;;16.25;11.25;;;;;15.04;51.32;98823.28;4811801;29;104039;-90
2021/11/17 13:54:34;;;;;;;;;12.00;11.00;;;;;15.04;51.90;98831.44;4821195;28;102582;-90
2021/11/17 13:57:03;;;;;;;;;12.25;11.75;;;;;15.02;51.47;98826.22;4830719;28;102342;-90
2021/11/17 13:59:30;;;;;;;;;14.00;9.50;;;;;15.01;51.60;98821.81;4813081;29;102918;-90
2021/11/17 14:01:58;;;;;;;;;12.00;12.00;;;;;15.00;51.50;98820.16;4828399;28;104187;-90
2021/11/17 14:04:25;;;;;;;;;12.00;9.50;;;;;14.99;52.08;98810.34;4819869;28;103139;-90
2021/11/17 14:06:53;;;;;;;;;14.75;13.00;;;;;14.98;51.56;98825.00;4815260;29;105887;-90
2021/11/17 14:09:20;;;;;;;;;11.00;9.00;;;;;15.02;51.43;98828.09;4792994;29;102266;-89
2021/11/17 14:11:47;;;;;;;;;12.00;11.50;;;;;15.01;51.60;98827.25;4806886;29;103751;-91
2021/11/17 14:14:14;;;;;;;;;14.25;12.75;;;;;15.02;51.38;98823.50;4812339;29;102677;-90
2021/11/17 14:16:41;;;;;;;;;15.00;12.00;;;;;15.03;51.58;98830.59;4818038;28;102705;-90
2021/11/17 14:19:09;;;;;;;;;14.00;11.00;;;;;15.00;51.70;98833.75;4826708;29;102194;-90
2021/11/17 14:21:36;;;;;;;;;11.00;8.00;;;;;14.98;51.39;98825.00;4812060;29;104098;-90
2021/11/17 14:24:04;;;;;;;;;13.25;12.25;;;;;14.97;50.97;98826.03;4809855;28;102498;-90
2021/11/17 14:26:32;;;;;;;;;16.50;13.50;;;;;14.96;51.92;98829.81;4821061;28;102602;-90
2021/11/17 14:29:09;;;;;;;;;14.00;13.50;;;;;14.94;51.46;98821.06;4789757;29;102301;-90
2021/11/17 14:31:54;;;;;;;;;15.00;14.00;;;;;14.94;51.88;98815.63;4802863;29;103627;-89
2021/11/17 14:38:10;;;;;;;;;12.00;11.50;;;;;14.91;51.53;98826.94;4812362;28;102167;-90